createdAt,value
2018-10-07T00:01:57.734Z,16.50
2018-10-07T00:06:01.108Z,16.50
2018-10-07T00:10:04.499Z,16.40
2018-10-07T00:14:07.882Z,16.40
2018-10-07T00:18:11.275Z,16.40
2018-10-07T00:22:14.715Z,16.40
2018-10-07T00:26:18.096Z,16.30
2018-10-07T00:30:21.482Z,16.30
2018-10-07T00:34:24.853Z,16.20
2018-10-07T00:38:28.232Z,16.20
2018-10-07T00:42:31.600Z,16.10
2018-10-07T00:46:35.387Z,16.00
2018-10-07T00:50:38.766Z,16.00
2018-10-07T00:54:42.138Z,15.90
2018-10-07T00:58:45.523Z,15.90
2018-10-07T01:02:49.173Z,15.90
2018-10-07T01:06:52.560Z,15.90
2018-10-07T01:10:55.924Z,15.80
2018-10-07T01:14:59.316Z,15.80
2018-10-07T01:19:02.702Z,15.90
2018-10-07T01:23:06.617Z,15.90
2018-10-07T01:27:09.990Z,15.90
2018-10-07T01:31:13.400Z,15.90
2018-10-07T01:35:16.813Z,15.90
2018-10-07T01:39:20.217Z,15.90
2018-10-07T01:43:23.599Z,15.90
2018-10-07T01:47:26.972Z,15.90
2018-10-07T01:51:30.332Z,15.80
2018-10-07T01:55:33.706Z,15.80
2018-10-07T01:59:37.206Z,15.70
2018-10-07T02:03:40.613Z,15.60
2018-10-07T02:07:43.999Z,15.60
2018-10-07T02:11:47.366Z,15.50
2018-10-07T02:15:50.771Z,15.40
2018-10-07T02:19:54.144Z,15.30
2018-10-07T02:23:57.533Z,15.30
2018-10-07T02:28:00.948Z,15.20
2018-10-07T02:32:04.317Z,15.00
2018-10-07T02:36:07.697Z,14.90
2018-10-07T02:40:11.164Z,14.70
2018-10-07T02:44:14.513Z,14.60
2018-10-07T02:48:17.908Z,14.50
2018-10-07T02:52:26.760Z,14.40
2018-10-07T02:56:30.167Z,14.30
2018-10-07T03:00:33.619Z,14.10
2018-10-07T03:04:37.021Z,14.00
2018-10-07T03:08:40.441Z,13.90
2018-10-07T03:12:43.812Z,13.70
2018-10-07T03:16:47.205Z,13.60
2018-10-07T03:20:50.574Z,13.50
2018-10-07T03:24:53.954Z,13.40
2018-10-07T03:28:57.632Z,13.20
2018-10-07T03:33:00.968Z,13.10
2018-10-07T03:37:04.338Z,13.00
2018-10-07T03:41:07.820Z,12.90
2018-10-07T03:45:11.203Z,12.80
2018-10-07T03:49:14.560Z,12.70
2018-10-07T03:53:18.136Z,12.70
2018-10-07T03:57:21.540Z,12.60
2018-10-07T04:01:24.997Z,12.50
2018-10-07T04:05:28.365Z,12.40
2018-10-07T04:09:31.730Z,12.30
2018-10-07T04:13:35.091Z,12.30
2018-10-07T04:17:38.478Z,12.20
2018-10-07T04:21:44.822Z,12.10
2018-10-07T04:25:48.196Z,12.00
2018-10-07T04:29:51.570Z,11.90
2018-10-07T04:33:54.912Z,11.90
2018-10-07T04:37:58.278Z,11.80
2018-10-07T04:42:01.681Z,11.80
2018-10-07T04:46:05.313Z,11.80
2018-10-07T04:50:08.920Z,11.70
2018-10-07T04:54:12.287Z,11.70
2018-10-07T04:58:15.677Z,11.70
2018-10-07T05:02:19.058Z,11.60
2018-10-07T05:06:24.548Z,11.60
2018-10-07T05:10:45.889Z,11.60
2018-10-07T05:14:49.300Z,11.50
2018-10-07T05:18:52.698Z,11.50
2018-10-07T05:22:56.095Z,11.40
2018-10-07T05:26:59.472Z,11.50
2018-10-07T05:31:02.936Z,11.40
2018-10-07T05:35:06.320Z,11.40
2018-10-07T05:39:10.987Z,11.30
2018-10-07T05:43:14.364Z,11.30
2018-10-07T05:47:17.735Z,11.30
2018-10-07T05:51:21.903Z,11.20
2018-10-07T05:55:25.295Z,11.20
2018-10-07T05:59:29.573Z,11.20
2018-10-07T06:03:51.096Z,11.20
2018-10-07T06:07:54.480Z,11.10
2018-10-07T06:11:58.066Z,11.10
2018-10-07T06:16:01.501Z,11.10
2018-10-07T06:20:04.963Z,11.10
2018-10-07T06:24:08.348Z,11.00
2018-10-07T06:28:11.749Z,11.00
2018-10-07T06:32:15.248Z,11.00
2018-10-07T06:36:18.617Z,10.90
2018-10-07T06:40:22.114Z,10.90
2018-10-07T06:44:25.497Z,10.90
2018-10-07T06:48:28.847Z,10.90
2018-10-07T06:52:33.363Z,11.00
2018-10-07T06:56:36.724Z,11.20
2018-10-07T07:00:40.144Z,11.50
2018-10-07T07:04:44.196Z,11.90
2018-10-07T07:08:47.641Z,12.40
2018-10-07T07:12:51.018Z,12.80
2018-10-07T07:16:54.418Z,13.30
2018-10-07T07:20:57.766Z,13.80
2018-10-07T07:25:01.140Z,14.20
2018-10-07T07:29:04.505Z,14.60
2018-10-07T07:33:07.873Z,15.00
2018-10-07T07:37:11.231Z,15.30
2018-10-07T07:41:14.584Z,15.80
2018-10-07T07:45:17.935Z,16.20
2018-10-07T07:49:21.406Z,16.40
2018-10-07T07:53:24.764Z,16.70
2018-10-07T07:57:28.133Z,17.00
2018-10-07T08:01:31.471Z,17.40
2018-10-07T08:05:34.882Z,17.60
2018-10-07T08:09:38.264Z,17.90
2018-10-07T08:13:41.623Z,18.20
2018-10-07T08:17:46.350Z,18.50
2018-10-07T08:21:49.708Z,18.80
2018-10-07T08:25:53.056Z,19.20
2018-10-07T08:29:56.439Z,19.50
2018-10-07T08:38:02.888Z,20.10
2018-10-07T08:42:06.288Z,20.30
2018-10-07T08:46:09.658Z,20.40
2018-10-07T08:50:13.020Z,20.50
2018-10-07T08:54:16.372Z,20.80
2018-10-07T08:58:19.779Z,21.10
2018-10-07T09:02:23.165Z,21.40
2018-10-07T09:06:27.274Z,21.70
2018-10-07T09:10:30.703Z,22.00
2018-10-07T09:14:34.180Z,22.10
2018-10-07T09:18:37.520Z,22.30
2018-10-07T09:22:40.889Z,22.60
2018-10-07T09:26:44.273Z,22.80
2018-10-07T09:30:47.685Z,23.00
2018-10-07T09:34:51.265Z,23.30
2018-10-07T09:42:57.737Z,23.90
2018-10-07T09:47:01.146Z,24.10
2018-10-07T09:51:05.440Z,24.20
2018-10-07T09:55:10.045Z,23.70
2018-10-07T09:59:14.071Z,23.70
2018-10-07T10:03:17.837Z,23.40
2018-10-07T10:07:22.087Z,23.60
2018-10-07T10:11:25.628Z,23.80
2018-10-07T10:15:28.946Z,23.80
2018-10-07T10:19:51.224Z,24.00
2018-10-07T10:24:06.764Z,24.30
2018-10-07T10:28:17.538Z,24.50
2018-10-07T10:32:27.712Z,24.60
2018-10-07T10:36:37.645Z,24.90
2018-10-07T10:40:52.548Z,25.00
2018-10-07T10:44:59.541Z,25.40
2018-10-07T10:49:16.524Z,25.40
2018-10-07T10:53:42.014Z,25.50
2018-10-07T10:57:47.770Z,24.70
2018-10-07T11:02:01.466Z,25.10
2018-10-07T11:06:15.368Z,25.30
2018-10-07T11:10:52.091Z,25.50
2018-10-07T11:15:00.709Z,25.70
2018-10-07T11:19:17.120Z,26.20
2018-10-07T11:28:11.216Z,26.50
2018-10-07T11:32:21.203Z,26.70
2018-10-07T11:36:35.572Z,27.00
2018-10-07T11:40:53.847Z,26.90
2018-10-07T11:45:31.482Z,27.00
2018-10-07T11:53:44.761Z,27.40
2018-10-07T12:18:04.831Z,27.90
2018-10-07T12:22:08.671Z,27.90
2018-10-07T12:42:25.491Z,26.30
2018-10-07T12:46:28.866Z,25.70
2018-10-07T12:50:32.226Z,24.90
2018-10-07T12:54:35.697Z,24.00
2018-10-07T13:02:42.108Z,22.70
2018-10-07T13:06:45.490Z,22.20
2018-10-07T13:10:48.895Z,21.70
2018-10-07T13:14:52.267Z,21.30
2018-10-07T13:18:55.633Z,20.90
2018-10-07T13:22:59.001Z,20.60
2018-10-07T13:27:02.347Z,20.20
2018-10-07T13:31:05.838Z,20.00
2018-10-07T13:35:20.764Z,19.80
2018-10-07T13:39:24.137Z,19.70
2018-10-07T13:43:27.550Z,19.40
2018-10-07T13:47:30.924Z,19.30
2018-10-07T13:51:34.346Z,19.10
2018-10-07T13:55:37.706Z,19.00
2018-10-07T13:59:41.083Z,18.90
2018-10-07T14:03:44.485Z,18.80
2018-10-07T14:07:47.844Z,18.70
2018-10-07T14:11:51.219Z,18.60
2018-10-07T14:15:54.708Z,18.80
2018-10-07T14:19:58.084Z,19.20
2018-10-07T14:24:01.522Z,19.30
2018-10-07T14:28:04.851Z,19.50
2018-10-07T14:32:08.216Z,19.80
2018-10-07T14:36:11.604Z,20.10
2018-10-07T14:40:14.985Z,20.10
2018-10-07T14:44:18.358Z,20.00
2018-10-07T14:48:21.708Z,19.90
2018-10-07T14:52:25.065Z,19.70
2018-10-07T14:56:28.440Z,19.50
2018-10-07T15:00:31.804Z,19.30
2018-10-07T15:04:35.160Z,19.30
2018-10-07T15:08:38.631Z,19.10
2018-10-07T15:12:42.004Z,18.90
2018-10-07T15:16:45.399Z,18.70
2018-10-07T15:20:48.773Z,18.60
2018-10-07T15:24:52.129Z,18.70
2018-10-07T15:28:55.491Z,18.90
2018-10-07T15:32:58.859Z,19.10
2018-10-07T15:37:02.228Z,19.40
2018-10-07T15:41:05.719Z,19.40
2018-10-07T15:45:09.094Z,19.40
2018-10-07T15:49:12.485Z,19.40
2018-10-07T15:53:15.840Z,19.30
2018-10-07T15:57:19.608Z,19.30
2018-10-07T16:01:22.991Z,19.30
2018-10-07T16:05:26.348Z,19.20
2018-10-07T16:09:29.716Z,19.00
2018-10-07T16:13:33.060Z,18.80
2018-10-07T16:17:36.444Z,18.60
2018-10-07T16:21:39.801Z,18.40
2018-10-07T16:25:43.167Z,18.20
2018-10-07T16:29:46.539Z,17.90
2018-10-07T16:33:49.880Z,17.70
2018-10-07T16:37:53.247Z,17.50
2018-10-07T16:41:56.633Z,17.30
2018-10-07T16:45:59.996Z,17.10
2018-10-07T16:50:03.447Z,17.00
2018-10-07T16:54:06.859Z,16.90
2018-10-07T16:58:10.225Z,16.60
2018-10-07T17:02:13.603Z,16.50
2018-10-07T17:06:16.991Z,16.30
2018-10-07T17:10:20.364Z,16.10
2018-10-07T17:14:23.703Z,15.90
2018-10-07T17:18:27.081Z,15.80
2018-10-07T17:22:30.461Z,15.60
2018-10-07T17:26:35.181Z,15.50
2018-10-07T17:30:38.548Z,15.30
2018-10-07T17:34:41.880Z,15.20
2018-10-07T17:38:45.257Z,15.00
2018-10-07T17:42:48.692Z,14.80
2018-10-07T17:46:52.012Z,14.70
2018-10-07T17:50:55.413Z,14.50
2018-10-07T17:54:58.779Z,14.40
2018-10-07T17:59:02.129Z,14.20
2018-10-07T18:03:05.510Z,14.00
2018-10-07T18:07:08.901Z,13.90
2018-10-07T18:11:12.424Z,13.80
2018-10-07T18:15:15.804Z,13.60
2018-10-07T18:19:19.186Z,13.50
2018-10-07T18:23:22.641Z,13.40
2018-10-07T18:27:26.071Z,13.20
2018-10-07T18:31:29.464Z,13.10
2018-10-07T18:35:32.796Z,13.00
2018-10-07T18:39:36.161Z,12.90
2018-10-07T18:43:39.516Z,12.80
2018-10-07T18:47:42.881Z,12.70
2018-10-07T18:51:46.629Z,12.50
2018-10-07T18:55:50.011Z,12.40
2018-10-07T18:59:53.417Z,12.30
2018-10-07T19:03:56.811Z,12.30
2018-10-07T19:08:00.193Z,12.20
2018-10-07T19:12:03.566Z,12.00
2018-10-07T19:16:07.054Z,11.90
2018-10-07T19:20:11.465Z,11.90
2018-10-07T19:24:14.864Z,11.80
2018-10-07T19:28:18.243Z,11.70
2018-10-07T19:32:21.611Z,11.60
2018-10-07T19:36:24.960Z,11.50
2018-10-07T19:40:28.330Z,11.50
2018-10-07T19:44:31.687Z,11.40
2018-10-07T19:48:35.359Z,11.30
2018-10-07T19:52:38.763Z,11.20
2018-10-07T19:56:42.097Z,11.20
2018-10-07T20:00:45.493Z,11.10
2018-10-07T20:04:48.857Z,11.00
2018-10-07T20:08:52.253Z,10.90
2018-10-07T20:12:55.618Z,10.80
2018-10-07T20:16:58.976Z,10.60
2018-10-07T20:21:02.452Z,10.60
2018-10-07T20:25:05.876Z,10.40
2018-10-07T20:29:09.248Z,10.30
2018-10-07T20:33:12.603Z,10.20
2018-10-07T20:37:15.955Z,10.10
2018-10-07T20:41:19.338Z,10.10
2018-10-07T20:45:22.716Z,10.00
2018-10-07T20:49:26.675Z,9.90
2018-10-07T20:53:30.165Z,9.90
2018-10-07T20:57:33.679Z,9.80
2018-10-07T21:01:37.067Z,9.70
2018-10-07T21:05:40.479Z,9.70
2018-10-07T21:09:44.328Z,9.60
2018-10-07T21:13:47.784Z,9.60
2018-10-07T21:17:51.147Z,9.50
2018-10-07T21:21:54.579Z,9.40
2018-10-07T21:25:57.936Z,9.40
2018-10-07T21:30:01.309Z,9.30
2018-10-07T21:34:04.671Z,9.20
2018-10-07T21:38:08.045Z,9.20
2018-10-07T21:42:11.892Z,9.10
2018-10-07T21:46:15.241Z,9.00
2018-10-07T21:50:19.564Z,8.90
2018-10-07T21:54:22.957Z,8.80
2018-10-07T21:58:26.334Z,8.80
2018-10-07T22:02:32.255Z,8.70
2018-10-07T22:06:35.969Z,8.60
2018-10-07T22:10:39.336Z,8.60
2018-10-07T22:14:42.792Z,8.50
2018-10-07T22:18:46.459Z,8.40
2018-10-07T22:22:50.067Z,8.30
2018-10-07T22:26:53.517Z,8.20
2018-10-07T22:30:56.944Z,8.20
2018-10-07T22:35:00.296Z,8.20
2018-10-07T22:39:04.071Z,8.10
2018-10-07T22:43:06.717Z,8.10
2018-10-07T22:47:09.383Z,8.00
2018-10-07T22:51:12.037Z,8.00
2018-10-07T22:55:14.670Z,7.90
2018-10-07T22:59:17.309Z,7.90
2018-10-07T23:03:19.967Z,7.90
2018-10-07T23:07:23.150Z,7.90
2018-10-07T23:11:25.796Z,7.80
2018-10-07T23:15:28.468Z,7.80
2018-10-07T23:19:31.906Z,7.70
2018-10-07T23:23:34.534Z,7.60
2018-10-07T23:27:37.215Z,7.60
2018-10-07T23:31:39.874Z,7.50
2018-10-07T23:35:42.507Z,7.40
2018-10-07T23:39:45.181Z,7.40
2018-10-07T23:43:47.832Z,7.30
2018-10-07T23:47:50.498Z,7.20
2018-10-07T23:51:53.211Z,7.10
2018-10-07T23:55:55.800Z,7.10
2018-10-07T23:59:58.450Z,7.10
